Overview Statistics Trail Chart Weather Telemetry Raw packets
 

This is the latest recevied weather packets stored in our database for station/object N7ZAP. If no packets are shown the sender has not sent any weather packets the latest 10 day(s).

<< 77 78 79 80 81 82 83 >>
Time Temp. Humidity Pressure Rain* Wind** Luminosity Snow
1788135846 30.56° C 24% 1018.5 hPa 0 mm - - -
1788135542 30.56° C 24% 1018.5 hPa 0 mm - - -
1788135237 30.56° C 25% 1018.8 hPa 0 mm - - -
1788134935 30.56° C 25% 1018.4 hPa 0 mm - - -
1788134630 31.11° C 25% 1018.3 hPa 0 mm - - -
1788134328 31.67° C 24% 1018.4 hPa 0 mm - - -
1788134023 31.11° C 23% 1018.2 hPa 0 mm - - -
1788133718 30.56° C 27% 1018 hPa 0 mm - - -
1788133414 30.56° C 27% 1018.3 hPa 0 mm - - -
1788133110 30.56° C 29% 1018.1 hPa 0 mm - - -
1788132805 31.11° C 27% 1018.5 hPa 0 mm - - -
1788132500 31.11° C 28% 1018.8 hPa 0 mm - - -
1788132196 30.56° C 28% 1018.4 hPa 0 mm - - -
1788131892 31.67° C 27% 1018.4 hPa 0 mm - - -
1788131593 33.33° C 22% 1018.7 hPa 0 mm - - -
1788131287 33.33° C 22% 1018 hPa 0 mm - - -
1788130982 33.33° C 21% 1018.2 hPa 0 mm - - -
1788130682 33.89° C 21% 1018.1 hPa 0 mm - - -
1788130377 34.44° C 21% 1018 hPa 0 mm - - -
1788130076 34.44° C 22% 1018.2 hPa 0 mm - - -
1788129771 35° C 21% 1018.1 hPa 0 mm - - -
1788129468 35.56° C 20% 1018 hPa 0 mm - - -
1788129164 36.11° C 20% 1017.7 hPa 0 mm - - -
1788128858 36.11° C 20% 1017.7 hPa 0 mm - - -
1788128553 36.11° C 20% 1017.8 hPa 0 mm - - -

* Rain latest hour (hover to see other rain measurements)
** Current wind speed in m/s (hover to see current wind gust speed)